New Waterford, OH (44445)

4:27 PM EDT on September 20, 2014 (GMT -0400)
Columbiana WTP | Change Station
CLOSE
Current Station
Personal Weather Station
Location: Columbiana, OH
Elevation: 1164 ft
Nearby Weather Stations

Elev 1164 ft 40.87 °N, 80.67 °W | Updated 1 minute ago

Partly Cloudy
Partly Cloudy
76.2 °F
Feels Like 78 °F
N
5.0
Wind Variable Wind from SW
Gusts 14.0 mph

Today
High -- | Low -- °F
--% Chance of Precip.
Yesterday
High -- | Low -- °F
Precip. -- in
7:08 AM 7:23 PM
Waning Crescent, 10% visible
Pressure 30.02 in
Visibility 10.0 miles
Clouds Clear
Heat Index 78 °F
Dew Point 65 °F
Humidity 68%
Rainfall 0.00 in
Snow Depth Not available.
UV 5 out of 12
Pollen 5.00 out of 12
Air Quality Not available.
Flu Activity Not available.
METAR KBVI 201947Z 20012G17KT 10SM SKC 25/16 A3002

More Conditions Fewer Conditions

Pressure 30.02 in
Visibility 10.0 miles
Clouds Clear
Heat Index 78 °F
Dew Point 65 °F
Humidity 68%
Rainfall 0.00 in
Snow Depth Not available.
UV 5 out of 12
Pollen 5.00 out of 12
Air Quality Not available.
Flu Activity Not available.
METAR KBVI 201947Z 20012G17KT 10SM SKC 25/16 A3002

More Conditions Fewer Conditions

10-Day Weather Forecast

Almanac

Astronomy

Sep. 20, 2014 Rise Set
Actual Time 7:08 AM EDT 7:23 PM EDT
Civil Twilight 6:40 AM EDT 7:50 PM EDT
Nautical Twilight 6:08 AM EDT 8:22 PM EDT
Astronomical Twilight 5:35 AM EDT 8:55 PM EDT
Moon 3:44 AM EDT 5:26 PM EDT
Length of Visible Light 13h 09m
Length of Day
12h 15m
Tomorrow will be 2m 42s shorter.
Waning Crescent, 10% of the Moon is Illuminated
Today
Waning Crescent
Sep 24
New
Oct 1
First Quarter
Oct 8
Full
Oct 15
Last Quarter

Today's Extremes

State Highs State Lows

Community

WunderPhotos

Upload Photos

1,754,937 photos uploaded!

WunderBlogs® & News

Nearby

Snow Depth

Station Depth Elevation
No new snow has been reported.

Earthquake Activity

City Distance Mag. Time & Date
No recent earthquake activity has been reported nearby.
Minimum magnitude displayed is 2.5.

Coastal Water Temperatures

Place Temperature
No Stations Reporting

Nearby Weather Stations